createdAt,value
2019-03-16T00:00:33.188Z,3.27
2019-03-16T00:03:00.574Z,3.07
2019-03-16T00:05:27.859Z,3.47
2019-03-16T00:07:55.098Z,3.20
2019-03-16T00:10:22.444Z,3.30
2019-03-16T00:12:49.752Z,2.83
2019-03-16T00:15:17.029Z,2.70
2019-03-16T00:17:44.301Z,3.30
2019-03-16T00:20:11.981Z,2.70
2019-03-16T00:22:39.344Z,2.43
2019-03-16T00:25:06.621Z,3.10
2019-03-16T00:27:33.885Z,2.70
2019-03-16T00:30:01.184Z,3.70
2019-03-16T00:32:28.458Z,3.10
2019-03-16T00:34:55.860Z,3.07
2019-03-16T00:37:23.130Z,3.07
2019-03-16T00:39:50.558Z,3.37
2019-03-16T00:42:17.855Z,2.87
2019-03-16T00:44:47.767Z,2.97
2019-03-16T00:47:15.065Z,2.47
2019-03-16T00:49:42.302Z,3.50
2019-03-16T00:52:09.583Z,2.60
2019-03-16T00:54:36.847Z,2.77
2019-03-16T00:57:04.120Z,3.43
2019-03-16T00:59:31.521Z,2.43
2019-03-16T01:01:58.953Z,2.73
2019-03-16T01:04:26.248Z,2.83
2019-03-16T01:06:53.535Z,3.40
2019-03-16T01:09:20.810Z,3.57
2019-03-16T01:11:48.079Z,3.53
2019-03-16T01:14:15.391Z,2.97
2019-03-16T01:16:42.796Z,3.23
2019-03-16T01:19:10.032Z,2.37
2019-03-16T01:21:37.311Z,3.57
2019-03-16T01:24:04.569Z,3.13
2019-03-16T01:26:31.830Z,3.17
2019-03-16T01:28:59.134Z,3.20
2019-03-16T01:31:26.394Z,3.33
2019-03-16T01:33:53.694Z,2.70
2019-03-16T01:36:21.022Z,3.50
2019-03-16T01:38:48.281Z,2.90
2019-03-16T01:41:15.565Z,2.90
2019-03-16T01:43:42.850Z,2.90
2019-03-16T01:46:10.123Z,2.80
2019-03-16T01:48:37.562Z,3.30
2019-03-16T01:51:04.908Z,3.57
2019-03-16T01:53:32.157Z,3.83
2019-03-16T01:55:59.415Z,2.90
2019-03-16T01:58:26.741Z,2.77
2019-03-16T02:00:54.017Z,3.20
2019-03-16T02:03:21.274Z,3.73
2019-03-16T02:05:48.571Z,3.00
2019-03-16T02:08:15.921Z,3.07
2019-03-16T02:10:43.251Z,2.80
2019-03-16T02:13:10.556Z,2.70
2019-03-16T02:15:37.884Z,3.20
2019-03-16T02:18:05.144Z,3.23
2019-03-16T02:20:32.434Z,3.13
2019-03-16T02:22:59.693Z,2.43
2019-03-16T02:25:26.943Z,3.20
2019-03-16T02:27:54.291Z,2.47
2019-03-16T02:30:21.594Z,2.80
2019-03-16T02:32:48.846Z,2.70
2019-03-16T02:35:16.124Z,3.07
2019-03-16T02:37:43.364Z,3.30
2019-03-16T02:40:10.859Z,2.73
2019-03-16T02:42:38.221Z,3.30
2019-03-16T02:45:05.550Z,3.83
2019-03-16T02:47:32.845Z,3.80
2019-03-16T02:50:00.181Z,3.40
2019-03-16T02:52:27.761Z,3.57
2019-03-16T02:54:55.024Z,4.13
2019-03-16T02:57:22.296Z,3.70
2019-03-16T02:59:49.626Z,3.90
2019-03-16T03:02:16.911Z,3.37
2019-03-16T03:04:46.226Z,2.73
2019-03-16T03:07:13.352Z,3.50
2019-03-16T03:09:40.669Z,3.43
2019-03-16T03:12:07.981Z,4.97
2019-03-16T03:14:35.319Z,3.90
2019-03-16T03:17:02.735Z,3.00
2019-03-16T03:19:30.022Z,2.80
2019-03-16T03:21:57.302Z,3.10
2019-03-16T03:24:24.650Z,2.53
2019-03-16T03:26:51.893Z,2.90
2019-03-16T03:29:19.346Z,3.03
2019-03-16T03:31:46.609Z,3.10
2019-03-16T03:34:14.157Z,3.37
2019-03-16T03:36:41.483Z,2.70
2019-03-16T03:39:08.829Z,2.73
2019-03-16T03:41:36.340Z,2.87
2019-03-16T03:44:03.610Z,3.40
2019-03-16T03:46:32.607Z,2.77
2019-03-16T03:49:00.037Z,3.00
2019-03-16T03:51:27.266Z,2.57
2019-03-16T03:53:54.496Z,3.00
2019-03-16T03:56:21.918Z,2.57
2019-03-16T03:58:49.278Z,2.60
2019-03-16T04:01:16.564Z,2.87
2019-03-16T04:03:43.820Z,2.60
2019-03-16T04:06:11.147Z,3.57
2019-03-16T04:08:38.492Z,2.90
2019-03-16T04:11:05.782Z,3.37
2019-03-16T04:13:33.069Z,3.47
2019-03-16T04:16:00.347Z,3.50
2019-03-16T04:18:27.604Z,3.77
2019-03-16T04:20:54.975Z,2.57
2019-03-16T04:23:22.256Z,2.60
2019-03-16T04:25:49.463Z,2.30
2019-03-16T04:28:16.848Z,2.50
2019-03-16T04:30:44.113Z,3.30
2019-03-16T04:33:11.414Z,2.77
2019-03-16T04:35:38.722Z,3.10
2019-03-16T04:38:06.006Z,2.30
2019-03-16T04:40:33.375Z,2.63
2019-03-16T04:43:00.680Z,3.40
2019-03-16T04:45:27.940Z,2.70
2019-03-16T04:47:55.239Z,4.27
2019-03-16T04:50:22.504Z,3.20
2019-03-16T04:52:51.078Z,2.43
2019-03-16T04:55:18.616Z,3.00
2019-03-16T04:57:45.873Z,3.40
2019-03-16T05:00:13.303Z,3.23
2019-03-16T05:02:40.558Z,3.23
2019-03-16T05:05:07.819Z,2.57
2019-03-16T05:07:35.108Z,2.80
2019-03-16T05:10:02.566Z,2.77
2019-03-16T05:12:29.822Z,2.77
2019-03-16T05:14:57.111Z,2.87
2019-03-16T05:17:24.399Z,2.80
2019-03-16T05:19:51.693Z,3.30
2019-03-16T05:22:18.932Z,2.60
2019-03-16T05:24:46.236Z,3.23
2019-03-16T05:27:13.622Z,3.47
2019-03-16T05:29:40.852Z,2.63
2019-03-16T05:32:08.103Z,2.20
2019-03-16T05:34:35.387Z,2.80
2019-03-16T05:37:02.636Z,2.10
2019-03-16T05:39:30.014Z,1.50
2019-03-16T05:41:57.357Z,1.87
2019-03-16T05:44:24.625Z,1.70
2019-03-16T05:46:51.886Z,1.60
2019-03-16T05:49:19.130Z,1.67
2019-03-16T05:51:46.383Z,1.50
2019-03-16T05:54:13.685Z,1.37
2019-03-16T05:56:41.009Z,1.57
2019-03-16T05:59:08.239Z,1.20
2019-03-16T06:01:35.564Z,1.37
2019-03-16T06:04:02.810Z,1.50
2019-03-16T06:06:30.041Z,1.57
2019-03-16T06:08:57.355Z,1.40
2019-03-16T06:11:24.618Z,1.20
2019-03-16T06:13:51.851Z,1.60
2019-03-16T06:16:19.163Z,1.37
2019-03-16T06:18:46.416Z,1.80
2019-03-16T06:21:13.800Z,1.27
2019-03-16T06:23:41.057Z,1.30
2019-03-16T06:26:08.324Z,1.30
2019-03-16T06:28:35.587Z,1.43
2019-03-16T06:31:02.849Z,1.40
2019-03-16T06:33:30.145Z,1.10
2019-03-16T06:35:57.485Z,1.30
2019-03-16T06:38:24.769Z,1.53
2019-03-16T06:40:52.008Z,1.50
2019-03-16T06:43:19.342Z,1.63
2019-03-16T06:45:46.656Z,1.43
2019-03-16T06:48:13.913Z,1.50
2019-03-16T06:50:41.160Z,1.00
2019-03-16T06:53:08.492Z,1.40
2019-03-16T06:55:35.777Z,1.20
2019-03-16T06:58:03.041Z,1.90
2019-03-16T07:00:30.339Z,1.20
2019-03-16T07:02:57.627Z,1.20
2019-03-16T07:05:37.257Z,1.17
2019-03-16T07:07:54.078Z,1.00
2019-03-16T07:10:21.387Z,1.20
2019-03-16T07:12:48.713Z,1.20
2019-03-16T07:15:15.978Z,0.90
2019-03-16T07:17:43.364Z,0.90
2019-03-16T07:20:10.634Z,0.90
2019-03-16T07:22:37.913Z,1.17
2019-03-16T07:25:05.311Z,1.10
2019-03-16T07:27:32.989Z,1.20
2019-03-16T07:30:00.429Z,1.80
2019-03-16T07:32:27.735Z,1.30
2019-03-16T07:34:55.002Z,1.10
2019-03-16T07:37:23.185Z,1.00
2019-03-16T07:39:50.497Z,1.03
2019-03-16T07:42:17.789Z,1.30
2019-03-16T07:44:45.079Z,1.00
2019-03-16T07:47:14.528Z,1.30
2019-03-16T07:49:41.562Z,1.80
2019-03-16T07:52:08.875Z,2.50
2019-03-16T07:54:36.188Z,1.97
2019-03-16T07:57:03.473Z,2.00
2019-03-16T07:59:30.780Z,1.60
2019-03-16T08:01:58.089Z,1.30
2019-03-16T08:04:25.318Z,1.30
2019-03-16T08:06:52.581Z,1.40
2019-03-16T08:09:20.046Z,1.60
2019-03-16T08:11:47.432Z,1.30
2019-03-16T08:14:14.719Z,1.20
2019-03-16T08:16:42.013Z,1.67
2019-03-16T08:19:09.314Z,1.30
2019-03-16T08:21:36.632Z,1.70
2019-03-16T08:24:03.949Z,1.50
2019-03-16T08:26:31.271Z,1.30
2019-03-16T08:28:59.272Z,1.63
2019-03-16T08:31:26.704Z,2.00
2019-03-16T08:33:54.043Z,1.93
2019-03-16T08:36:21.336Z,2.00
2019-03-16T08:38:48.589Z,1.57
2019-03-16T08:41:15.909Z,2.13
2019-03-16T08:43:43.317Z,1.60
2019-03-16T08:46:10.672Z,2.20
2019-03-16T08:48:37.980Z,1.40
2019-03-16T08:51:05.262Z,2.03
2019-03-16T08:53:32.619Z,1.63
2019-03-16T08:55:59.921Z,1.93
2019-03-16T08:58:27.286Z,2.40
2019-03-16T09:00:54.746Z,2.30
2019-03-16T09:03:21.988Z,1.90
2019-03-16T09:05:49.274Z,2.17
2019-03-16T09:08:16.767Z,2.20
2019-03-16T09:10:44.055Z,2.03
2019-03-16T09:13:11.301Z,2.70
2019-03-16T09:15:38.642Z,2.23
2019-03-16T09:18:05.920Z,2.13
2019-03-16T09:20:33.161Z,2.47
2019-03-16T09:23:00.701Z,2.17
2019-03-16T09:25:28.039Z,2.13
2019-03-16T09:27:55.283Z,3.10
2019-03-16T09:30:22.575Z,3.40
2019-03-16T09:32:50.029Z,2.80
2019-03-16T09:35:17.351Z,2.40
2019-03-16T09:37:44.607Z,3.00
2019-03-16T09:40:11.947Z,2.50
2019-03-16T09:42:39.295Z,2.37
2019-03-16T09:45:07.619Z,2.60
2019-03-16T09:47:34.907Z,2.67
2019-03-16T09:50:02.238Z,1.90
2019-03-16T09:52:29.555Z,2.10
2019-03-16T09:54:56.995Z,2.37
2019-03-16T09:57:24.234Z,2.00
2019-03-16T09:59:51.545Z,1.93
2019-03-16T10:02:19.041Z,1.70
2019-03-16T10:04:46.324Z,2.20
2019-03-16T10:07:14.174Z,2.10
2019-03-16T10:09:41.554Z,2.20
2019-03-16T10:12:08.849Z,2.07
2019-03-16T10:14:37.409Z,2.50
2019-03-16T10:17:04.708Z,2.50
2019-03-16T10:19:32.100Z,2.87
2019-03-16T10:21:59.375Z,2.40
2019-03-16T10:24:26.635Z,2.87
2019-03-16T10:26:53.909Z,2.80
2019-03-16T10:29:21.193Z,3.17
2019-03-16T10:31:48.539Z,2.67
2019-03-16T10:34:15.799Z,3.43
2019-03-16T10:36:43.365Z,2.97
2019-03-16T10:39:10.616Z,3.00
2019-03-16T10:41:38.237Z,3.03
2019-03-16T10:44:05.699Z,3.53
2019-03-16T10:46:32.988Z,4.60
2019-03-16T10:49:00.297Z,3.87
2019-03-16T10:51:27.841Z,4.33
2019-03-16T10:53:55.180Z,3.23
2019-03-16T10:56:22.542Z,3.70
2019-03-16T10:58:56.483Z,3.63
2019-03-16T11:01:19.057Z,3.80
2019-03-16T11:03:46.354Z,4.10
2019-03-16T11:06:13.656Z,3.90
2019-03-16T11:08:40.958Z,4.00
2019-03-16T11:11:08.197Z,4.00
2019-03-16T11:13:35.563Z,3.73
2019-03-16T11:16:02.864Z,3.93
2019-03-16T11:18:30.153Z,3.27
2019-03-16T11:20:57.463Z,4.40
2019-03-16T11:23:24.750Z,3.93
2019-03-16T11:25:52.184Z,4.40
2019-03-16T11:28:19.543Z,4.70
2019-03-16T11:30:46.788Z,3.83
2019-03-16T11:33:14.242Z,4.47
2019-03-16T11:35:41.522Z,3.87
2019-03-16T11:38:08.809Z,4.40
2019-03-16T11:40:36.121Z,4.83
2019-03-16T11:43:03.436Z,4.00
2019-03-16T11:45:30.754Z,3.77
2019-03-16T11:47:58.145Z,4.00
2019-03-16T11:50:25.476Z,3.90
2019-03-16T11:52:52.784Z,4.33
2019-03-16T11:55:20.059Z,5.00
2019-03-16T11:57:47.346Z,3.97
2019-03-16T12:00:15.011Z,3.20
2019-03-16T12:02:42.307Z,4.10
2019-03-16T12:05:09.573Z,3.93
2019-03-16T12:07:36.887Z,3.63
2019-03-16T12:10:04.300Z,4.50
2019-03-16T12:12:31.566Z,3.93
2019-03-16T12:14:58.875Z,4.37
2019-03-16T12:17:26.582Z,4.80
2019-03-16T12:19:58.331Z,4.50
2019-03-16T12:22:25.653Z,5.03
2019-03-16T12:24:53.021Z,4.60
2019-03-16T12:27:20.245Z,4.83
2019-03-16T12:29:47.529Z,4.50
2019-03-16T12:32:14.790Z,5.60
2019-03-16T12:34:42.093Z,5.23
2019-03-16T12:37:09.410Z,4.13
2019-03-16T12:39:36.682Z,4.73
2019-03-16T12:42:03.950Z,4.00
2019-03-16T12:44:31.499Z,4.10
2019-03-16T12:46:58.769Z,4.17
2019-03-16T12:49:26.186Z,4.20
2019-03-16T12:51:53.440Z,4.47
2019-03-16T12:54:20.754Z,3.83
2019-03-16T12:56:48.007Z,4.50
2019-03-16T12:59:15.283Z,3.57
2019-03-16T13:01:42.574Z,5.00
2019-03-16T13:04:09.808Z,4.50
2019-03-16T13:06:37.048Z,3.73
2019-03-16T13:09:06.805Z,3.10
2019-03-16T13:11:34.111Z,3.73
2019-03-16T13:14:01.488Z,4.30
2019-03-16T13:16:31.031Z,4.03
2019-03-16T13:18:58.314Z,3.60
2019-03-16T13:21:25.719Z,4.80
2019-03-16T13:23:53.002Z,4.07
2019-03-16T13:26:20.270Z,4.20
2019-03-16T13:28:47.586Z,3.90
2019-03-16T13:31:14.922Z,2.90
2019-03-16T13:33:42.176Z,3.47
2019-03-16T13:36:11.476Z,2.90
2019-03-16T13:38:38.789Z,3.83
2019-03-16T13:41:06.079Z,3.20
2019-03-16T13:43:33.502Z,3.07
2019-03-16T13:46:00.832Z,3.53
2019-03-16T13:48:28.188Z,3.33
2019-03-16T13:50:55.473Z,3.20
2019-03-16T13:53:22.793Z,3.50
2019-03-16T13:55:50.613Z,3.80
2019-03-16T13:58:18.028Z,3.33
2019-03-16T14:00:45.622Z,3.13
2019-03-16T14:03:13.183Z,3.43
2019-03-16T14:05:42.118Z,3.10
2019-03-16T14:08:12.746Z,3.20
2019-03-16T14:10:40.576Z,3.20
2019-03-16T14:13:08.180Z,2.53
2019-03-16T14:15:35.669Z,3.20
2019-03-16T14:18:03.417Z,3.53
2019-03-16T14:20:30.817Z,3.23
2019-03-16T14:22:58.725Z,2.90
2019-03-16T14:25:26.367Z,2.50
2019-03-16T14:27:59.588Z,2.77
2019-03-16T14:30:40.316Z,2.73
2019-03-16T14:32:56.227Z,3.33
2019-03-16T14:35:23.691Z,3.23
2019-03-16T14:37:51.290Z,3.23
2019-03-16T14:40:18.982Z,2.97
2019-03-16T14:42:49.360Z,2.77
2019-03-16T14:45:18.120Z,2.90
2019-03-16T14:47:45.798Z,3.10
2019-03-16T14:50:16.495Z,3.90
2019-03-16T14:52:44.603Z,3.47
2019-03-16T14:55:12.304Z,4.63
2019-03-16T14:57:39.916Z,3.47
2019-03-16T15:00:09.293Z,3.90
2019-03-16T15:02:39.413Z,3.70
2019-03-16T15:05:07.279Z,3.50
2019-03-16T15:07:34.933Z,3.30
2019-03-16T15:10:02.600Z,3.53
2019-03-16T15:12:30.127Z,3.07
2019-03-16T15:14:57.491Z,3.00
2019-03-16T15:17:25.595Z,3.23
2019-03-16T15:19:53.333Z,3.07
2019-03-16T15:22:24.043Z,4.00
2019-03-16T15:24:51.793Z,2.73
2019-03-16T15:27:19.231Z,3.33
2019-03-16T15:29:46.786Z,3.73
2019-03-16T15:32:14.220Z,4.80
2019-03-16T15:34:41.692Z,3.93
2019-03-16T15:37:09.467Z,3.50
2019-03-16T15:39:36.934Z,3.77
2019-03-16T15:42:04.678Z,3.80
2019-03-16T15:44:32.674Z,4.43
2019-03-16T15:47:00.203Z,3.40
2019-03-16T15:49:27.733Z,4.07
2019-03-16T15:51:55.144Z,4.00
2019-03-16T15:54:22.708Z,4.27
2019-03-16T15:56:56.120Z,3.93
2019-03-16T15:59:24.994Z,3.87
2019-03-16T16:01:52.479Z,4.00
2019-03-16T16:04:19.988Z,3.53
2019-03-16T16:06:47.584Z,4.80
2019-03-16T16:09:15.202Z,4.13
2019-03-16T16:11:42.692Z,3.50
2019-03-16T16:14:10.091Z,3.83
2019-03-16T16:16:37.572Z,3.87
2019-03-16T16:19:04.826Z,4.30
2019-03-16T16:21:32.080Z,3.60
2019-03-16T16:23:59.675Z,3.63
2019-03-16T16:26:27.212Z,3.27
2019-03-16T16:28:54.739Z,3.47
2019-03-16T16:31:25.283Z,4.57
2019-03-16T16:33:52.580Z,4.00
2019-03-16T16:36:19.924Z,3.60
2019-03-16T16:38:47.183Z,2.93
2019-03-16T16:41:14.494Z,4.07
2019-03-16T16:43:41.941Z,3.63
2019-03-16T16:46:11.476Z,3.53
2019-03-16T16:48:38.749Z,3.00
2019-03-16T16:51:06.032Z,3.40
2019-03-16T16:53:33.308Z,3.33
2019-03-16T16:56:00.612Z,4.57
2019-03-16T16:58:27.917Z,3.17
2019-03-16T17:00:55.124Z,4.50
2019-03-16T17:03:22.380Z,3.73
2019-03-16T17:05:49.690Z,4.83
2019-03-16T17:08:16.911Z,4.23
2019-03-16T17:10:44.208Z,4.57
2019-03-16T17:13:11.450Z,4.27
2019-03-16T17:15:38.745Z,4.50
2019-03-16T17:18:06.162Z,4.43
2019-03-16T17:20:33.549Z,3.63
2019-03-16T17:23:00.898Z,4.57
2019-03-16T17:25:28.142Z,3.47
2019-03-16T17:27:55.446Z,3.80
2019-03-16T17:30:22.791Z,3.93
2019-03-16T17:32:50.137Z,4.27
2019-03-16T17:35:17.418Z,3.83
2019-03-16T17:37:44.691Z,4.00
2019-03-16T17:40:12.293Z,3.67
2019-03-16T17:42:39.700Z,3.67
2019-03-16T17:45:07.717Z,3.70
2019-03-16T17:47:35.150Z,4.10
2019-03-16T17:50:03.259Z,3.90
2019-03-16T17:52:30.553Z,3.10
2019-03-16T17:54:57.890Z,3.23
2019-03-16T17:57:25.164Z,3.63
2019-03-16T17:59:52.450Z,4.07
2019-03-16T18:02:19.755Z,4.20
2019-03-16T18:04:46.997Z,3.73
2019-03-16T18:07:14.317Z,3.60
2019-03-16T18:09:41.605Z,4.10
2019-03-16T18:12:08.914Z,3.73
2019-03-16T18:14:36.225Z,4.10
2019-03-16T18:17:03.545Z,4.27
2019-03-16T18:19:30.832Z,4.10
2019-03-16T18:21:58.602Z,4.07
2019-03-16T18:24:25.875Z,3.87
2019-03-16T18:26:53.136Z,4.13
2019-03-16T18:29:20.414Z,4.47
2019-03-16T18:31:47.716Z,4.40
2019-03-16T18:34:15.054Z,3.97
2019-03-16T18:36:42.349Z,4.40
2019-03-16T18:39:09.719Z,4.60
2019-03-16T18:41:37.015Z,5.10
2019-03-16T18:44:04.282Z,4.53
2019-03-16T18:46:31.566Z,4.27
2019-03-16T18:48:58.894Z,4.40
2019-03-16T18:51:27.678Z,4.20
2019-03-16T18:53:54.996Z,4.10
2019-03-16T18:56:22.268Z,4.60
2019-03-16T18:58:49.524Z,4.07
2019-03-16T19:01:16.877Z,4.00
2019-03-16T19:03:44.142Z,4.20
2019-03-16T19:06:11.383Z,4.10
2019-03-16T19:08:38.733Z,3.80
2019-03-16T19:11:05.995Z,4.10
2019-03-16T19:13:33.698Z,4.33
2019-03-16T19:16:00.997Z,4.23
2019-03-16T19:18:28.284Z,4.60
2019-03-16T19:20:55.541Z,4.40
2019-03-16T19:23:22.772Z,3.67
2019-03-16T19:25:50.085Z,3.67
2019-03-16T19:28:18.644Z,3.87
2019-03-16T19:30:46.108Z,3.63
2019-03-16T19:33:13.400Z,3.30
2019-03-16T19:35:41.128Z,3.83
2019-03-16T19:38:08.402Z,3.70
2019-03-16T19:40:36.094Z,3.60
2019-03-16T19:43:03.364Z,3.87
2019-03-16T19:45:30.733Z,3.50
2019-03-16T19:47:58.209Z,3.23
2019-03-16T19:50:25.473Z,3.30
2019-03-16T19:52:52.810Z,4.20
2019-03-16T19:55:20.113Z,3.50
2019-03-16T19:57:47.432Z,3.50
2019-03-16T20:00:14.697Z,3.20
2019-03-16T20:02:50.249Z,3.10
2019-03-16T20:05:11.456Z,3.40
2019-03-16T20:07:38.717Z,3.13
2019-03-16T20:10:06.575Z,3.40
2019-03-16T20:12:33.802Z,3.10
2019-03-16T20:15:01.100Z,3.83
2019-03-16T20:17:28.390Z,3.70
2019-03-16T20:19:55.620Z,3.27
2019-03-16T20:22:22.951Z,2.97
2019-03-16T20:24:50.362Z,3.70
2019-03-16T20:27:17.649Z,3.90
2019-03-16T20:29:44.895Z,3.70
2019-03-16T20:32:12.187Z,3.20
2019-03-16T20:34:39.475Z,3.37
2019-03-16T20:37:06.745Z,3.97
2019-03-16T20:39:33.974Z,3.83
2019-03-16T20:42:01.219Z,4.00
2019-03-16T20:44:28.514Z,3.23
2019-03-16T20:46:55.813Z,3.20
2019-03-16T20:49:23.165Z,3.27
2019-03-16T20:51:50.491Z,3.07
2019-03-16T20:54:17.751Z,3.10
2019-03-16T20:56:45.003Z,3.00
2019-03-16T20:59:12.303Z,3.40
2019-03-16T21:01:39.702Z,3.50
2019-03-16T21:04:07.013Z,2.87
2019-03-16T21:06:34.324Z,3.20
2019-03-16T21:09:03.295Z,3.17
2019-03-16T21:11:31.014Z,3.73
2019-03-16T21:13:58.358Z,3.60
2019-03-16T21:16:25.656Z,3.20
2019-03-16T21:18:52.928Z,3.37
2019-03-16T21:21:20.180Z,3.60
2019-03-16T21:23:47.467Z,3.10
2019-03-16T21:26:14.772Z,3.00
2019-03-16T21:28:42.042Z,3.30
2019-03-16T21:31:09.423Z,3.57
2019-03-16T21:33:36.810Z,3.30
2019-03-16T21:36:05.143Z,3.10
2019-03-16T21:38:32.495Z,4.27
2019-03-16T21:40:59.750Z,4.30
2019-03-16T21:43:29.873Z,3.70
2019-03-16T21:45:57.178Z,2.90
2019-03-16T21:48:24.421Z,2.97
2019-03-16T21:50:51.754Z,4.10
2019-03-16T21:53:18.986Z,3.40
2019-03-16T21:55:46.262Z,2.73
2019-03-16T21:58:13.572Z,3.10
2019-03-16T22:00:40.833Z,2.97
2019-03-16T22:03:08.101Z,3.40
2019-03-16T22:05:35.392Z,3.20
2019-03-16T22:08:03.172Z,3.20
2019-03-16T22:10:30.465Z,3.33
2019-03-16T22:12:58.390Z,3.37
2019-03-16T22:15:25.622Z,3.10
2019-03-16T22:17:52.919Z,2.90
2019-03-16T22:20:20.157Z,3.47
2019-03-16T22:22:47.439Z,3.20
2019-03-16T22:25:14.926Z,3.20
2019-03-16T22:27:45.109Z,2.40
2019-03-16T22:30:12.990Z,2.93
2019-03-16T22:32:40.306Z,2.90
2019-03-16T22:35:09.381Z,3.40
2019-03-16T22:37:36.837Z,3.30
2019-03-16T22:40:04.247Z,3.13
2019-03-16T22:42:31.539Z,3.00
2019-03-16T22:44:58.799Z,3.00
2019-03-16T22:47:26.185Z,3.07
2019-03-16T22:49:53.450Z,3.17
2019-03-16T22:52:20.717Z,3.77
2019-03-16T22:54:48.004Z,3.20
2019-03-16T22:57:15.260Z,4.20
2019-03-16T22:59:42.537Z,2.93
2019-03-16T23:02:09.796Z,3.10
2019-03-16T23:04:37.073Z,2.87
2019-03-16T23:07:04.340Z,3.30
2019-03-16T23:09:31.720Z,3.10
2019-03-16T23:11:59.108Z,3.37
2019-03-16T23:14:26.511Z,3.73
2019-03-16T23:16:53.835Z,3.00
2019-03-16T23:19:21.105Z,3.37
2019-03-16T23:21:48.380Z,3.10
2019-03-16T23:24:15.661Z,3.20
2019-03-16T23:26:42.937Z,3.30
2019-03-16T23:29:10.195Z,3.07
2019-03-16T23:31:37.482Z,3.47
2019-03-16T23:34:04.733Z,2.83
2019-03-16T23:36:32.015Z,3.07
2019-03-16T23:39:02.222Z,3.13
2019-03-16T23:41:28.439Z,3.20
2019-03-16T23:43:55.769Z,3.20
2019-03-16T23:46:23.100Z,3.07
2019-03-16T23:48:52.387Z,3.33
2019-03-16T23:51:19.629Z,3.20
2019-03-16T23:53:46.892Z,2.93
2019-03-16T23:56:14.188Z,3.20
2019-03-16T23:58:41.425Z,3.10
